Time;durP1;ratioP1;P1;durP2;ratioP2;P2;SDS_P1;SDS_P2;PMS_P1;PMS_P2;Temp;Humidity;BMP_temperature;BMP_pressure;BME280_temperature;BME280_humidity;BME280_pressure;Samples;Min_cycle;Max_cycle;Signal;HPM_P1;HPM_P2
2022/05/16 00:00:49;;;;;;;16.52;3.90;;;;;;;16.92;63.63;101379.44;5052616;28;20495;-63
2022/05/16 00:03:14;;;;;;;10.38;3.50;;;;;;;16.87;63.54;101371.66;5054267;28;20021;-63
2022/05/16 00:05:40;;;;;;;10.10;3.00;;;;;;;16.86;63.65;101379.78;5053268;28;20120;-64
2022/05/16 00:08:05;;;;;;;11.20;3.05;;;;;;;16.82;63.90;101367.56;5053330;28;20032;-63
2022/05/16 00:10:31;;;;;;;9.38;3.13;;;;;;;16.77;64.34;101373.19;5053918;28;20033;-63
2022/05/16 00:12:59;;;;;;;9.88;3.30;;;;;;;16.74;63.97;101368.06;5053875;28;20028;-63
2022/05/16 00:15:25;;;;;;;9.15;3.20;;;;;;;16.71;64.06;101366.44;5053974;28;20021;-63
2022/05/16 00:17:51;;;;;;;15.27;3.53;;;;;;;16.74;63.76;101361.84;5054124;28;20472;-63
2022/05/16 00:20:17;;;;;;;10.82;3.55;;;;;;;16.74;63.53;101354.69;5053576;28;20090;-63
2022/05/16 00:22:43;;;;;;;12.45;3.67;;;;;;;16.72;64.15;101356.59;5052507;28;20123;-63
2022/05/16 00:25:11;;;;;;;10.63;3.80;;;;;;;16.69;64.35;101351.44;5053954;28;20060;-63
2022/05/16 00:27:36;;;;;;;9.65;4.15;;;;;;;16.64;64.94;101342.84;5053795;28;20036;-63
2022/05/16 00:30:08;;;;;;;11.70;3.70;;;;;;;16.61;64.74;101340.34;5036095;28;20056;-63
2022/05/16 00:32:33;;;;;;;10.20;3.65;;;;;;;16.58;65.11;101351.25;5053138;28;20094;-63
2022/05/16 00:34:59;;;;;;;8.50;3.10;;;;;;;16.53;64.81;101333.69;5054010;28;20029;-64
2022/05/16 00:37:24;;;;;;;10.90;3.40;;;;;;;16.53;64.79;101332.81;5052764;28;20087;-63
2022/05/16 00:39:49;;;;;;;11.88;3.50;;;;;;;16.54;64.48;101327.34;5052627;28;20047;-62
2022/05/16 00:42:15;;;;;;;7.75;3.60;;;;;;;16.55;64.84;101322.88;5051627;28;20057;-62
2022/05/16 00:44:40;;;;;;;9.48;3.13;;;;;;;16.50;65.65;101325.00;5052366;28;20028;-62
2022/05/16 00:47:06;;;;;;;9.45;3.38;;;;;;;16.49;64.66;101324.13;5052424;28;20029;-62
2022/05/16 00:49:35;;;;;;;11.93;3.60;;;;;;;16.47;65.08;101318.03;5053817;28;20045;-63
2022/05/16 00:52:18;;;;;;;10.65;3.30;;;;;;;16.44;66.15;101312.84;5053279;28;20025;-63
2022/05/16 00:55:06;;;;;;;7.93;3.15;;;;;;;16.43;65.81;101311.13;5041169;28;20029;-63
2022/05/16 00:57:38;;;;;;;9.13;3.88;;;;;;;16.39;65.84;101312.28;5052267;28;20086;-63
2022/05/16 01:00:33;;;;;;;8.32;3.40;;;;;;;16.38;66.06;101300.72;5053644;28;20032;-63
2022/05/16 01:05:50;;;;;;;7.88;3.42;;;;;;;16.36;66.51;101299.97;5052099;28;20032;-63
2022/05/16 01:08:18;;;;;;;12.65;3.42;;;;;;;16.32;67.74;101293.09;5051973;28;20029;-63
2022/05/16 01:10:44;;;;;;;11.25;3.58;;;;;;;16.24;67.45;101290.06;5052959;28;20028;-63
2022/05/16 01:13:10;;;;;;;10.75;3.60;;;;;;;16.22;67.51;101292.78;5052239;28;20032;-64
2022/05/16 01:15:48;;;;;;;8.02;3.22;;;;;;;16.17;67.91;101292.22;5052987;28;20040;-64
2022/05/16 01:18:21;;;;;;;10.13;3.38;;;;;;;16.14;67.78;101281.72;5052883;28;20033;-63
2022/05/16 01:21:13;;;;;;;12.15;3.15;;;;;;;16.12;68.18;101290.78;5052495;28;20021;-63
2022/05/16 01:23:44;;;;;;;8.15;3.20;;;;;;;16.08;68.70;101292.78;5052215;28;20037;-64
2022/05/16 01:26:15;;;;;;;8.35;3.60;;;;;;;16.09;68.16;101285.63;5047672;28;20021;-63
2022/05/16 01:28:40;;;;;;;17.08;3.90;;;;;;;16.11;67.47;101273.88;5052510;28;20033;-63
2022/05/16 01:31:06;;;;;;;10.52;4.13;;;;;;;16.11;67.88;101275.72;5051318;28;20025;-63
2022/05/16 01:33:31;;;;;;;13.10;3.50;;;;;;;16.08;68.42;101281.25;5052633;28;20162;-63
2022/05/16 01:35:57;;;;;;;10.82;3.67;;;;;;;16.10;67.57;101287.34;5050709;28;20072;-63
2022/05/16 01:38:27;;;;;;;9.50;3.40;;;;;;;16.15;67.40;101288.78;5050897;28;20032;-63
2022/05/16 01:41:07;;;;;;;8.93;3.65;;;;;;;16.14;68.34;101286.19;5052115;28;20099;-63
2022/05/16 01:43:36;;;;;;;12.05;3.70;;;;;;;16.04;68.71;101276.06;5052414;28;20094;-63
2022/05/16 01:46:03;;;;;;;10.60;3.60;;;;;;;16.03;69.01;101279.69;5052442;28;20104;-63
2022/05/16 01:48:30;;;;;;;9.15;3.35;;;;;;;15.95;69.64;101286.47;5052387;28;20025;-63
2022/05/16 01:51:05;;;;;;;10.77;3.50;;;;;;;15.84;70.82;101288.00;5052186;28;20219;-64
2022/05/16 01:53:31;;;;;;;9.57;3.63;;;;;;;15.82;70.45;101281.88;5052201;28;20017;-64
2022/05/16 01:55:56;;;;;;;10.77;3.40;;;;;;;15.72;71.78;101265.50;5033828;28;20086;-64
2022/05/16 01:58:23;;;;;;;7.63;3.40;;;;;;;15.55;72.94;101260.31;5050869;28;20079;-64
2022/05/16 02:00:49;;;;;;;9.30;3.95;;;;;;;15.49;73.50;101271.34;5051893;28;20021;-64
2022/05/16 02:03:15;;;;;;;8.05;3.28;;;;;;;15.52;73.15;101272.00;5034319;28;20044;-64
2022/05/16 02:05:43;;;;;;;8.23;3.20;;;;;;;15.51;73.73;101270.31;5051796;28;20381;-63
2022/05/16 02:08:08;;;;;;;11.40;3.72;;;;;;;15.46;74.45;101255.50;5051522;28;20384;-63
2022/05/16 02:10:33;;;;;;;9.80;3.55;;;;;;;15.42;75.13;101273.50;5050892;28;20028;-63
2022/05/16 02:12:59;;;;;;;13.23;3.80;;;;;;;15.38;74.98;101267.50;5049355;28;20431;-63
2022/05/16 02:15:28;;;;;;;11.13;3.83;;;;;;;15.37;75.08;101251.56;5050759;28;20036;-63
2022/05/16 02:17:54;;;;;;;9.90;3.67;;;;;;;15.37;75.37;101259.56;5030336;28;20361;-63
2022/05/16 02:20:20;;;;;;;9.40;3.45;;;;;;;15.37;75.26;101259.56;5031888;28;20033;-63
2022/05/16 02:25:32;;;;;;;12.85;3.70;;;;;;;15.38;75.54;101248.81;5039328;28;20494;-63
2022/05/16 02:27:58;;;;;;;9.32;3.40;;;;;;;15.33;75.48;101236.69;5049846;28;20477;-64
2022/05/16 02:30:23;;;;;;;14.63;4.10;;;;;;;15.25;76.22;101239.81;5051492;28;20024;-63
2022/05/16 02:32:49;;;;;;;10.82;3.55;;;;;;;15.19;76.78;101246.38;5051593;28;20025;-63
2022/05/16 02:35:15;;;;;;;8.60;3.58;;;;;;;15.16;77.08;101238.53;5051146;28;20051;-63
2022/05/16 02:37:40;;;;;;;9.48;3.50;;;;;;;15.13;77.48;101230.72;5050981;28;20033;-62
2022/05/16 02:40:07;;;;;;;11.48;3.38;;;;;;;15.08;77.81;101224.78;5050229;28;20060;-64
2022/05/16 02:42:33;;;;;;;11.13;3.70;;;;;;;15.10;77.98;101230.88;5051645;28;20045;-64
2022/05/16 02:44:58;;;;;;;8.57;3.58;;;;;;;15.06;78.10;101211.53;5050181;28;20031;-62
2022/05/16 02:47:25;;;;;;;11.23;3.40;;;;;;;14.96;79.31;101212.16;5050049;28;20033;-63
2022/05/16 02:49:51;;;;;;;8.23;3.70;;;;;;;14.90;79.87;101202.72;5051181;28;20033;-63
2022/05/16 02:52:16;;;;;;;7.72;3.40;;;;;;;14.88;79.54;101197.44;5051548;28;20037;-63
2022/05/16 02:54:41;;;;;;;9.32;3.70;;;;;;;14.90;79.40;101198.22;5051607;28;20452;-63
2022/05/16 02:57:07;;;;;;;7.13;3.75;;;;;;;15.04;77.38;101212.59;5050886;28;20036;-63
2022/05/16 02:59:34;;;;;;;7.90;3.50;;;;;;;15.14;76.88;101203.09;5043601;28;20025;-62
2022/05/16 03:02:00;;;;;;;12.18;4.10;;;;;;;15.17;76.74;101202.91;5030561;28;20041;-63
2022/05/16 03:04:26;;;;;;;11.50;3.63;;;;;;;15.14;76.96;101195.09;5030890;28;20030;-63
2022/05/16 03:06:51;;;;;;;13.20;4.10;;;;;;;15.04;77.76;101194.75;5036998;28;20047;-63
2022/05/16 03:09:17;;;;;;;8.48;3.90;;;;;;;15.01;78.89;101207.41;5050914;28;20078;-63
2022/05/16 03:11:44;;;;;;;9.48;4.15;;;;;;;15.07;78.65;101202.56;5049907;28;20063;-63
2022/05/16 03:14:11;;;;;;;8.50;3.60;;;;;;;15.17;77.66;101205.56;5050044;28;20422;-62
2022/05/16 03:16:38;;;;;;;10.77;4.03;;;;;;;15.18;78.13;101211.75;5049642;28;20435;-63
2022/05/16 03:19:03;;;;;;;10.75;4.10;;;;;;;15.26;77.81;101204.19;5051448;28;20029;-63
2022/05/16 03:21:29;;;;;;;12.90;4.35;;;;;;;15.34;76.87;101198.38;5050754;28;20052;-63
2022/05/16 03:23:56;;;;;;;14.18;4.40;;;;;;;15.31;76.80;101188.75;5054034;28;20514;-64
2022/05/16 03:26:22;;;;;;;9.65;4.68;;;;;;;15.28;77.10;101190.75;5054911;28;20029;-63
2022/05/16 03:28:47;;;;;;;15.45;5.60;;;;;;;15.37;76.44;101199.06;5033337;28;20060;-63
2022/05/16 03:31:13;;;;;;;11.30;4.30;;;;;;;15.53;74.12;101209.69;5043566;28;20070;-63
2022/05/16 03:33:38;;;;;;;13.27;4.20;;;;;;;15.64;73.32;101214.38;5053531;28;20033;-63
2022/05/16 03:36:04;;;;;;;11.50;4.40;;;;;;;15.71;72.61;101204.19;5053601;28;20025;-63
2022/05/16 03:41:13;;;;;;;13.05;4.60;;;;;;;15.70;73.06;101216.69;5054016;28;20467;-63
2022/05/16 03:43:40;;;;;;;15.35;4.30;;;;;;;15.68;73.79;101199.03;5054842;28;20476;-63
2022/05/16 03:46:06;;;;;;;10.77;4.75;;;;;;;15.67;73.44;101203.50;5053394;28;20076;-64
2022/05/16 03:48:33;;;;;;;11.80;4.30;;;;;;;15.64;74.08;101205.50;5054503;28;20403;-63
2022/05/16 03:51:00;;;;;;;11.80;4.70;;;;;;;15.52;75.32;101205.28;5053436;28;20029;-64
2022/05/16 03:53:26;;;;;;;15.13;5.00;;;;;;;15.48;75.95;101205.56;5052638;28;20491;-63
2022/05/16 03:55:52;;;;;;;11.73;4.85;;;;;;;15.43;76.88;101200.50;5034555;28;20063;-63
2022/05/16 03:58:17;;;;;;;13.50;4.80;;;;;;;15.46;77.11;101210.13;5052718;28;20108;-64
2022/05/16 04:00:43;;;;;;;11.73;4.82;;;;;;;15.44;77.10;101210.22;5052694;28;20128;-63
2022/05/16 04:03:09;;;;;;;12.15;4.82;;;;;;;15.43;76.94;101205.84;5053378;28;20044;-62
2022/05/16 04:05:35;;;;;;;17.27;4.88;;;;;;;15.40;77.13;101198.03;5053330;28;20033;-62
2022/05/16 04:08:01;;;;;;;10.85;4.90;;;;;;;15.32;77.47;101205.63;5036774;28;20033;-62
2022/05/16 04:10:27;;;;;;;11.48;5.18;;;;;;;15.29;78.59;101205.81;5053791;28;20071;-62
2022/05/16 04:12:53;;;;;;;11.93;5.00;;;;;;;15.37;77.93;101198.19;5053747;28;20029;-63
2022/05/16 04:15:21;;;;;;;13.60;4.82;;;;;;;15.46;78.10;101199.47;5050181;28;20037;-63
2022/05/16 04:17:46;;;;;;;14.63;5.20;;;;;;;15.50;77.69;101191.19;5033114;28;20033;-63
2022/05/16 04:20:13;;;;;;;10.80;4.90;;;;;;;15.60;78.08;101199.50;5046079;28;20392;-63
2022/05/16 04:22:42;;;;;;;14.20;4.85;;;;;;;15.68;77.53;101193.72;5052777;28;20078;-63
2022/05/16 04:25:09;;;;;;;14.98;4.82;;;;;;;15.75;76.58;101191.50;5053353;28;20389;-63
2022/05/16 04:27:35;;;;;;;12.25;5.13;;;;;;;15.84;76.74;101196.31;5054074;28;20618;-63
2022/05/16 04:30:02;;;;;;;15.32;5.45;;;;;;;15.95;77.06;101198.34;5052609;28;20111;-63
2022/05/16 04:32:27;;;;;;;10.02;5.22;;;;;;;16.05;75.60;101192.31;5053636;28;20021;-64
2022/05/16 04:34:52;;;;;;;13.30;5.35;;;;;;;16.16;75.48;101191.66;5050908;28;20055;-63
2022/05/16 04:37:18;;;;;;;9.45;5.30;;;;;;;16.28;75.04;101191.81;5043486;28;20370;-63
2022/05/16 04:39:43;;;;;;;14.02;5.40;;;;;;;16.34;73.76;101186.09;5039355;28;20029;-63
2022/05/16 04:44:52;;;;;;;9.63;4.78;;;;;;;16.45;73.49;101188.94;5048764;28;20071;-61
2022/05/16 04:47:18;;;;;;;12.82;5.30;;;;;;;16.53;73.19;101185.78;5043331;28;20570;-63
2022/05/16 04:49:44;;;;;;;11.70;4.95;;;;;;;16.54;75.04;101184.81;5046730;28;20045;-63
2022/05/16 04:52:11;;;;;;;11.63;4.80;;;;;;;16.64;74.34;101185.94;5044001;28;20034;-63
2022/05/16 04:54:40;;;;;;;10.25;4.75;;;;;;;16.68;74.87;101191.94;5031750;28;20066;-61
2022/05/16 04:57:06;;;;;;;13.43;6.43;;;;;;;16.69;72.30;101207.03;5044463;28;20037;-63
2022/05/16 04:59:32;;;;;;;10.77;5.22;;;;;;;16.80;70.79;101209.00;5037691;28;20060;-63
2022/05/16 05:01:58;;;;;;;12.30;5.63;;;;;;;16.87;70.75;101200.47;5044807;28;20092;-62
2022/05/16 05:04:24;;;;;;;13.18;5.18;;;;;;;16.94;70.66;101203.63;5032403;28;20026;-64
2022/05/16 05:06:49;;;;;;;10.50;5.10;;;;;;;17.03;70.18;101204.84;5039140;28;20052;-64
2022/05/16 05:09:15;;;;;;;11.88;5.30;;;;;;;17.04;70.66;101207.41;5050009;28;20052;-63
2022/05/16 05:14:34;;;;;;;12.95;5.75;;;;;;;17.19;68.71;101210.03;5035728;28;20235;-64
2022/05/16 05:17:00;;;;;;;13.75;5.25;;;;;;;17.22;69.05;101208.97;5042767;28;20040;-63
2022/05/16 05:19:26;;;;;;;12.80;5.53;;;;;;;17.14;68.83;101196.97;5041444;28;20037;-63
2022/05/16 05:21:51;;;;;;;14.32;5.45;;;;;;;17.15;68.84;101204.03;5049257;28;20028;-63
2022/05/16 05:24:17;;;;;;;11.48;5.57;;;;;;;17.10;69.63;101205.31;5043010;28;20112;-63
2022/05/16 05:26:46;;;;;;;11.52;6.00;;;;;;;17.11;69.42;101198.97;5038540;28;20029;-63
2022/05/16 05:29:12;;;;;;;14.40;5.63;;;;;;;17.13;70.29;101202.41;5031194;28;20036;-63
2022/05/16 05:31:41;;;;;;;14.93;5.60;;;;;;;17.13;69.85;101211.28;5032542;28;20029;-63
2022/05/16 05:34:08;;;;;;;12.88;5.55;;;;;;;17.19;69.24;101218.91;5048778;28;20045;-63
2022/05/16 05:36:34;;;;;;;12.82;6.00;;;;;;;17.17;69.59;101219.97;5042561;28;20032;-64
2022/05/16 05:39:01;;;;;;;12.77;6.40;;;;;;;17.13;70.03;101211.28;5044258;28;20021;-64
2022/05/16 05:41:27;;;;;;;14.50;6.25;;;;;;;17.11;69.47;101221.25;5034060;28;20052;-64
2022/05/16 05:43:53;;;;;;;16.38;6.00;;;;;;;17.07;70.72;101225.06;5042222;28;20396;-64
2022/05/16 05:46:18;;;;;;;11.63;5.30;;;;;;;17.08;70.20;101237.50;5046916;28;20036;-64
2022/05/16 05:48:45;;;;;;;15.05;5.95;;;;;;;17.12;70.55;101243.50;5041386;28;20468;-64
2022/05/16 05:51:11;;;;;;;16.63;5.75;;;;;;;17.15;70.60;101237.97;5037648;28;20029;-64
2022/05/16 05:53:37;;;;;;;17.17;5.50;;;;;;;17.14;71.18;101236.25;5045972;28;20077;-64
2022/05/16 05:56:04;;;;;;;16.40;6.35;;;;;;;17.11;70.86;101248.03;5032569;28;20026;-64
2022/05/16 05:58:32;;;;;;;13.88;6.18;;;;;;;17.06;71.52;101236.75;5044202;28;20027;-64
2022/05/16 06:00:57;;;;;;;12.02;5.80;;;;;;;17.08;71.90;101242.00;5037409;28;20041;-64
2022/05/16 06:03:23;;;;;;;19.27;6.32;;;;;;;17.08;72.56;101242.00;5045087;28;20759;-64
2022/05/16 06:05:49;;;;;;;15.20;5.97;;;;;;;17.10;72.22;101248.13;5034841;28;20761;-66
2022/05/16 06:08:14;;;;;;;16.10;6.30;;;;;;;17.13;72.76;101248.75;5043240;28;20083;-64
2022/05/16 06:10:39;;;;;;;12.55;5.82;;;;;;;17.16;72.78;101255.72;5034995;28;20056;-64
2022/05/16 06:13:05;;;;;;;16.45;6.32;;;;;;;17.18;72.70;101253.81;5047153;28;20488;-64
2022/05/16 06:15:31;;;;;;;15.27;5.95;;;;;;;17.24;73.09;101244.50;5038068;28;20484;-64
2022/05/16 06:17:56;;;;;;;18.65;6.05;;;;;;;17.23;74.29;101240.97;5045425;28;20112;-63
2022/05/16 06:20:22;;;;;;;15.02;5.97;;;;;;;17.20;75.01;101254.59;5046915;28;20040;-62
2022/05/16 06:22:47;;;;;;;11.05;6.28;;;;;;;17.22;74.96;101249.13;5044243;28;20051;-58
2022/05/16 06:25:31;;;;;;;14.68;5.90;;;;;;;17.28;73.32;101246.03;5037531;28;20112;-62
2022/05/16 06:28:03;;;;;;;12.45;6.30;;;;;;;17.33;73.85;101250.13;5044025;28;20048;-62
2022/05/16 06:30:30;;;;;;;14.63;6.97;;;;;;;17.47;74.13;101253.69;5050967;28;20598;-62
2022/05/16 06:32:55;;;;;;;12.23;5.90;;;;;;;17.61;72.98;101261.66;5042404;28;20041;-62
2022/05/16 06:35:21;;;;;;;11.23;5.95;;;;;;;17.74;72.23;101261.66;5039227;28;20388;-62
2022/05/16 06:37:47;;;;;;;14.55;6.57;;;;;;;17.90;71.75;101263.28;5049932;28;20055;-62
2022/05/16 06:40:14;;;;;;;14.98;6.40;;;;;;;18.02;71.29;101257.13;5050920;28;20052;-63
2022/05/16 06:42:39;;;;;;;13.93;6.32;;;;;;;18.18;71.01;101259.56;5048376;28;20044;-62
2022/05/16 06:45:07;;;;;;;16.00;6.55;;;;;;;18.33;70.77;101258.47;5050419;28;20549;-63
2022/05/16 06:47:32;;;;;;;12.77;6.28;;;;;;;18.55;70.11;101259.63;5049860;28;20060;-63
2022/05/16 06:49:58;;;;;;;11.27;6.28;;;;;;;18.83;69.74;101265.69;5050810;28;20052;-63
2022/05/16 06:52:24;;;;;;;11.75;6.15;;;;;;;19.03;68.90;101260.69;5051000;28;20473;-64
2022/05/16 06:54:50;;;;;;;12.18;6.22;;;;;;;19.16;68.30;101251.63;5050434;28;20029;-63
2022/05/16 06:57:16;;;;;;;15.27;6.03;;;;;;;19.34;65.79;101250.38;5052472;28;20093;-63
2022/05/16 06:59:42;;;;;;;16.42;6.88;;;;;;;19.57;64.99;101254.00;5054909;28;20033;-64
2022/05/16 07:02:08;;;;;;;16.95;6.07;;;;;;;19.73;64.05;101261.72;5053151;28;20025;-64
2022/05/16 07:04:36;;;;;;;15.60;6.22;;;;;;;19.89;64.29;101264.97;5038007;28;20029;-62
2022/05/16 07:07:04;;;;;;;12.57;6.47;;;;;;;20.18;62.27;101255.59;5047667;28;20029;-62
2022/05/16 07:09:30;;;;;;;11.05;6.63;;;;;;;20.27;61.91;101252.19;5034882;28;20041;-63
2022/05/16 07:11:56;;;;;;;18.25;6.13;;;;;;;20.36;61.73;101246.06;5035171;28;20442;-63
2022/05/16 07:14:22;;;;;;;13.90;6.53;;;;;;;20.38;61.67;101248.63;5035061;28;20112;-63
2022/05/16 07:16:47;;;;;;;11.75;6.22;;;;;;;20.44;62.83;101245.44;5053668;28;20130;-63
2022/05/16 07:19:12;;;;;;;14.77;5.97;;;;;;;20.51;63.29;101254.75;5054492;28;20043;-63
2022/05/16 07:21:38;;;;;;;13.77;6.40;;;;;;;20.62;62.55;101254.72;5037026;28;20102;-63
2022/05/16 07:24:04;;;;;;;12.48;6.43;;;;;;;20.68;62.68;101260.56;5055001;28;20029;-63
2022/05/16 07:29:13;;;;;;;11.35;5.10;;;;;;;20.75;60.95;101267.22;5050427;28;20064;-63
2022/05/16 07:31:39;;;;;;;9.70;5.15;;;;;;;20.80;61.17;101267.69;5054705;28;20516;-63
2022/05/16 07:34:04;;;;;;;10.88;5.20;;;;;;;20.97;60.82;101266.28;5054450;28;20029;-63
2022/05/16 07:36:29;;;;;;;14.73;5.00;;;;;;;21.32;59.56;101270.59;5051196;28;20033;-63
2022/05/16 07:38:55;;;;;;;8.23;4.53;;;;;;;21.51;58.72;101274.44;5045316;28;20045;-63
2022/05/16 07:41:20;;;;;;;11.60;4.68;;;;;;;21.57;58.85;101276.66;5051369;28;20075;-63
2022/05/16 07:43:45;;;;;;;12.23;5.40;;;;;;;21.50;59.53;101281.66;5055206;28;20442;-63
2022/05/16 07:46:11;;;;;;;11.52;5.20;;;;;;;21.63;58.51;101280.69;5052727;28;20488;-63
2022/05/16 07:48:36;;;;;;;13.07;5.10;;;;;;;21.72;57.94;101285.28;5054302;28;20366;-64
2022/05/16 07:51:02;;;;;;;11.90;5.10;;;;;;;21.82;58.17;101280.81;5053328;28;20493;-63
2022/05/16 07:53:28;;;;;;;15.10;5.20;;;;;;;21.83;59.04;101277.13;5052588;28;20040;-64
2022/05/16 07:55:55;;;;;;;14.50;5.28;;;;;;;22.03;59.28;101283.47;5054025;28;20723;-63
2022/05/16 07:58:22;;;;;;;14.50;4.88;;;;;;;22.17;58.72;101281.44;5052194;28;20024;-63
2022/05/16 08:00:50;;;;;;;8.63;4.93;;;;;;;22.24;58.87;101285.31;5052542;28;20111;-62
2022/05/16 08:03:17;;;;;;;8.65;4.40;;;;;;;22.34;59.05;101283.50;5054273;28;20021;-62
2022/05/16 08:05:43;;;;;;;11.98;4.55;;;;;;;22.34;59.30;101285.34;5052892;28;20036;-62
2022/05/16 08:10:53;;;;;;;9.45;4.13;;;;;;;22.27;60.23;101293.13;5053711;28;20235;-63
2022/05/16 08:13:19;;;;;;;7.97;3.70;;;;;;;22.34;59.79;101297.00;5054136;28;20546;-63
2022/05/16 08:15:45;;;;;;;10.82;4.32;;;;;;;22.40;60.14;101299.19;5052381;28;20025;-63
2022/05/16 08:18:12;;;;;;;13.98;5.43;;;;;;;22.67;59.46;101295.00;5051869;28;20024;-63
2022/05/16 08:20:41;;;;;;;16.15;5.22;;;;;;;22.98;58.80;101296.81;5052142;28;20036;-62
2022/05/16 08:23:07;;;;;;;10.35;4.05;;;;;;;23.21;58.24;101300.16;5048682;28;20029;-63
2022/05/16 08:25:33;;;;;;;7.30;3.65;;;;;;;23.39;56.75;101305.72;5051994;28;20116;-63
2022/05/16 08:27:58;;;;;;;8.30;3.65;;;;;;;23.33;57.11;101298.19;5051810;28;20112;-63
2022/05/16 08:30:24;;;;;;;6.05;3.78;;;;;;;23.31;57.08;101301.03;5051427;28;20082;-63
2022/05/16 08:32:51;;;;;;;6.88;3.92;;;;;;;23.32;57.62;101302.72;5049041;28;20456;-63
2022/05/16 08:35:18;;;;;;;6.78;3.58;;;;;;;23.27;57.89;101296.88;5042901;28;20025;-62
2022/05/16 08:40:44;;;;;;;11.38;3.90;;;;;;;23.52;60.05;101305.44;5051801;28;20174;-63
2022/05/16 08:43:16;;;;;;;7.88;3.65;;;;;;;24.60;53.98;101299.81;5050853;28;20049;-62
2022/05/16 08:45:51;;;;;;;7.43;3.67;;;;;;;26.19;49.43;101296.63;5052779;28;20025;-62
2022/05/16 08:48:25;;;;;;;9.55;3.80;;;;;;;26.87;46.18;101306.66;5052006;28;20079;-61
2022/05/16 08:51:25;;;;;;;6.80;3.60;;;;;;;27.91;42.80;101293.50;5050660;28;20024;-63
2022/05/16 08:54:12;;;;;;;7.22;3.25;;;;;;;28.86;42.15;101285.59;5027879;28;21027;-62
2022/05/16 08:56:44;;;;;;;7.47;3.30;;;;;;;29.61;38.24;101294.97;5047259;28;20021;-63
2022/05/16 08:59:18;;;;;;;7.40;3.20;;;;;;;30.28;38.30;101295.22;5049731;28;20029;-63
2022/05/16 09:01:51;;;;;;;8.27;3.20;;;;;;;30.82;37.07;101297.63;5050823;28;20029;-63
2022/05/16 09:04:37;;;;;;;10.88;3.10;;;;;;;30.68;37.56;101303.94;5051578;28;20029;-61
2022/05/16 09:07:16;;;;;;;11.88;2.90;;;;;;;31.34;35.12;101298.41;5053345;28;20025;-62
2022/05/16 09:09:47;;;;;;;8.23;3.00;;;;;;;31.29;35.53;101316.47;5052102;28;20093;-63
2022/05/16 09:12:21;;;;;;;8.93;3.40;;;;;;;31.34;35.57;101314.00;5051165;28;20032;-62
2022/05/16 09:15:11;;;;;;;6.88;3.03;;;;;;;31.30;35.22;101315.44;5052820;28;20108;-61
2022/05/16 09:18:14;;;;;;;6.65;2.80;;;;;;;31.17;35.96;101318.88;5050523;28;20032;-60
2022/05/16 09:20:53;;;;;;;7.00;2.70;;;;;;;31.32;34.59;101318.81;5047392;28;20029;-62
2022/05/16 09:23:44;;;;;;;8.32;2.90;;;;;;;30.75;35.32;101329.50;5050844;28;20135;-62
2022/05/16 09:26:16;;;;;;;;;;;;;;;30.34;35.59;101336.28;5052662;28;20480;-63
2022/05/16 09:29:23;;;;;;;7.50;2.90;;;;;;;29.09;38.61;101342.88;5050411;28;19916;-62
2022/05/16 09:31:52;;;;;;;5.90;2.90;;;;;;;28.15;41.43;101357.16;5050462;28;20025;-62
2022/05/16 09:34:18;;;;;;;6.82;2.90;;;;;;;28.50;39.57;101354.19;5051194;28;20052;-62
2022/05/16 09:36:49;;;;;;;5.00;3.00;;;;;;;27.68;41.82;101364.09;5046930;28;20451;-62
2022/05/16 09:39:23;;;;;;;6.80;3.10;;;;;;;28.18;42.08;101364.97;5032155;28;20029;-61
2022/05/16 09:41:48;;;;;;;6.30;3.00;;;;;;;29.13;39.85;101378.81;5035954;28;20072;-60
2022/05/16 09:44:29;;;;;;;8.73;2.77;;;;;;;29.86;38.10;101376.66;5051970;28;20113;-61
2022/05/16 09:47:24;;;;;;;8.13;3.22;;;;;;;29.62;38.45;101381.28;5047460;28;20279;-63
2022/05/16 09:50:02;;;;;;;10.25;3.83;;;;;;;28.42;41.53;101404.09;5050736;28;20061;-61
2022/05/16 09:52:28;;;;;;;13.93;3.60;;;;;;;27.35;44.62;101399.38;5050481;28;20025;-62
2022/05/16 09:55:03;;;;;;;7.45;3.42;;;;;;;26.76;45.74;101400.16;5050451;28;20029;-62
2022/05/16 09:57:32;;;;;;;13.75;3.90;;;;;;;26.08;47.24;101411.75;5044758;28;20040;-64
2022/05/16 10:00:15;;;;;;;8.02;4.03;;;;;;;25.37;50.19;101408.81;5049061;28;20111;-62
2022/05/16 10:02:41;;;;;;;8.65;3.88;;;;;;;24.96;50.74;101406.44;5048529;28;20039;-63
2022/05/16 10:05:29;;;;;;;8.07;2.97;;;;;;;24.64;50.85;101409.56;5051044;28;20025;-62
2022/05/16 10:08:00;;;;;;;10.70;3.50;;;;;;;24.30;52.77;101410.03;5051535;28;20605;-63
2022/05/16 10:10:29;;;;;;;;;;;;;;;23.95;54.72;101427.72;5051325;28;20040;-63
2022/05/16 10:12:57;;;;;;;5.78;3.28;;;;;;;23.70;57.92;101429.94;5051358;28;20273;-63
2022/05/16 10:15:22;;;;;;;11.50;3.60;;;;;;;23.67;62.51;101436.50;5050098;28;20044;-63
2022/05/16 10:17:52;;;;;;;9.43;3.70;;;;;;;23.46;65.51;101474.44;5050375;28;20035;-65
2022/05/16 10:20:22;;;;;;;11.77;3.33;;;;;;;23.17;67.45;101474.31;5051572;28;20025;-62
2022/05/16 10:22:56;;;;;;;6.43;2.80;;;;;;;22.83;66.20;101479.97;5054318;28;20021;-62
2022/05/16 10:25:29;;;;;;;8.07;3.13;;;;;;;22.34;72.10;101490.41;5057741;28;20025;-63
2022/05/16 10:27:57;;;;;;;10.32;3.45;;;;;;;22.34;72.50;101499.38;5058681;28;20091;-63
2022/05/16 10:30:27;;;;;;;7.63;3.38;;;;;;;22.65;72.85;101498.59;5061621;28;20029;-63
2022/05/16 10:35:54;;;;;;;9.63;4.43;;;;;;;22.54;72.40;101505.78;5051156;28;20040;-63
2022/05/16 10:38:40;;;;;;;12.30;4.18;;;;;;;22.46;73.32;101527.19;5060849;28;20517;-63
2022/05/16 10:41:11;;;;;;;12.27;4.55;;;;;;;22.38;73.47;101529.69;5031697;28;20034;-62
2022/05/16 10:43:50;;;;;;;11.35;5.53;;;;;;;21.95;74.46;101530.53;5045167;28;20576;-62
2022/05/16 10:46:25;;;;;;;15.93;5.82;;;;;;;21.84;75.92;101531.38;5049717;28;20041;-63
2022/05/16 10:48:58;;;;;;;14.80;6.20;;;;;;;21.73;76.74;101540.38;5046923;28;20431;-62
2022/05/16 10:51:33;;;;;;;16.05;6.63;;;;;;;21.58;77.40;101542.47;5049198;28;20449;-63
2022/05/16 10:54:06;;;;;;;14.30;6.05;;;;;;;21.46;79.13;101536.19;5049970;28;20396;-63
2022/05/16 10:56:50;;;;;;;18.30;8.13;;;;;;;21.12;80.59;101552.31;5049904;28;20028;-61
2022/05/16 10:59:27;;;;;;;19.55;10.50;;;;;;;20.97;81.05;101545.44;5049447;28;20063;-63
2022/05/16 11:02:13;;;;;;;21.13;11.27;;;;;;;20.93;81.45;101547.53;5048697;28;20036;-62
2022/05/16 11:04:51;;;;;;;24.63;13.90;;;;;;;20.86;81.46;101543.59;5061305;28;20123;-63
2022/05/16 11:07:35;;;;;;;22.50;14.38;;;;;;;20.59;81.32;101552.78;5050661;28;20087;-63
2022/05/16 11:10:10;;;;;;;25.25;14.32;;;;;;;20.50;82.85;101566.91;5050889;28;20112;-62
2022/05/16 11:12:49;;;;;;;23.33;13.50;;;;;;;20.34;83.07;101561.84;5050530;28;20075;-62
2022/05/16 11:15:20;;;;;;;21.00;11.48;;;;;;;20.16;83.41;101553.31;5050363;28;20021;-62
2022/05/16 11:18:01;;;;;;;17.45;8.88;;;;;;;20.01;82.89;101572.28;5050728;28;20021;-62
2022/05/16 11:20:35;;;;;;;13.80;7.25;;;;;;;19.85;83.73;101579.75;5050503;28;20041;-63
2022/05/16 11:23:23;;;;;;;14.98;7.63;;;;;;;19.73;84.18;101582.34;5049991;28;20043;-63
2022/05/16 11:25:58;;;;;;;17.23;7.43;;;;;;;19.49;85.91;101577.75;5050407;28;20032;-63
2022/05/16 11:28:33;;;;;;;17.13;8.20;;;;;;;19.15;92.25;101577.41;5050733;28;20033;-63
2022/05/16 11:31:14;;;;;;;24.70;9.80;;;;;;;18.74;98.26;101582.94;5050043;28;20029;-64
2022/05/16 11:33:54;;;;;;;16.35;8.07;;;;;;;18.13;100.00;101572.63;5049204;28;20601;-65
2022/05/16 11:36:36;;;;;;;25.50;8.70;;;;;;;17.57;100.00;101589.53;5050403;28;20028;-64
2022/05/16 11:39:22;;;;;;;18.98;9.57;;;;;;;17.39;100.00;101586.16;5050410;28;20024;-64
2022/05/16 11:42:14;;;;;;;21.42;9.75;;;;;;;17.13;100.00;101593.13;5049983;28;20048;-65
2022/05/16 11:44:40;;;;;;;24.20;10.32;;;;;;;16.99;100.00;101593.94;5049219;28;20041;-64
2022/05/16 11:47:14;;;;;;;21.98;10.98;;;;;;;16.85;100.00;101605.44;5054286;28;20381;-64
2022/05/16 11:50:02;;;;;;;21.20;12.48;;;;;;;16.64;100.00;101602.22;5053030;28;20025;-64
2022/05/16 11:52:36;;;;;;;25.77;14.77;;;;;;;16.54;100.00;101604.56;5053604;28;20028;-64
2022/05/16 11:55:04;;;;;;;28.17;16.55;;;;;;;16.53;100.00;101613.53;5053459;28;20025;-64